createdAt,value
2022-09-27T00:00:38.871Z,995.95
2022-09-27T00:02:35.551Z,995.95
2022-09-27T00:04:35.935Z,996.03
2022-09-27T00:06:39.927Z,996.03
2022-09-27T00:08:35.494Z,996.1
2022-09-27T00:10:35.998Z,996.1
2022-09-27T00:12:34.935Z,995.98
2022-09-27T00:14:35.698Z,995.98
2022-09-27T00:16:35.591Z,996.01
2022-09-27T00:18:35.596Z,996.01
2022-09-27T00:20:35.940Z,995.97
2022-09-27T00:22:35.543Z,995.97
2022-09-27T00:24:35.379Z,996.05
2022-09-27T00:26:35.640Z,996.05
2022-09-27T00:28:35.765Z,996.14
2022-09-27T00:30:35.320Z,996.14
2022-09-27T00:32:35.671Z,996.1
2022-09-27T00:34:35.992Z,996.1
2022-09-27T00:36:35.229Z,996.14
2022-09-27T00:38:35.745Z,996.14
2022-09-27T00:40:42.105Z,996.14
2022-09-27T00:42:35.244Z,996.14
2022-09-27T00:44:35.265Z,996.17
2022-09-27T00:46:35.916Z,996.17
2022-09-27T00:48:35.052Z,996.14
2022-09-27T00:50:35.559Z,996.14
2022-09-27T00:52:35.438Z,996.14
2022-09-27T00:54:35.170Z,996.14
2022-09-27T00:56:35.239Z,996.3
2022-09-27T00:58:35.855Z,996.3
2022-09-27T01:00:35.004Z,996.28
2022-09-27T01:02:35.583Z,996.28
2022-09-27T01:04:35.553Z,996.15
2022-09-27T01:06:35.581Z,996.15
2022-09-27T01:08:35.253Z,996.3
2022-09-27T01:10:35.059Z,996.31
2022-09-27T01:12:35.536Z,996.31
2022-09-27T01:14:35.076Z,996.28
2022-09-27T01:16:35.556Z,996.28
2022-09-27T01:18:35.887Z,996.33
2022-09-27T01:20:35.987Z,996.33
2022-09-27T01:22:35.837Z,996.26
2022-09-27T01:24:35.415Z,996.26
2022-09-27T01:26:35.043Z,996.31
2022-09-27T01:28:35.788Z,996.31
2022-09-27T01:30:35.117Z,996.34
2022-09-27T01:32:35.496Z,996.34
2022-09-27T01:34:35.795Z,996.29
2022-09-27T01:36:35.128Z,996.29
2022-09-27T01:38:35.889Z,996.16
2022-09-27T01:40:35.439Z,996.16
2022-09-27T01:42:37.269Z,996.2
2022-09-27T01:44:35.447Z,996.2
2022-09-27T01:46:35.519Z,996.16
2022-09-27T01:48:35.712Z,996.16
2022-09-27T01:50:35.275Z,996.16
2022-09-27T01:52:35.316Z,996.16
2022-09-27T01:54:35.197Z,996.18
2022-09-27T01:56:35.222Z,996.18
2022-09-27T01:58:35.764Z,996.17
2022-09-27T02:00:40.367Z,996.17
2022-09-27T02:02:35.371Z,996.26
2022-09-27T02:04:35.551Z,996.26
2022-09-27T02:06:35.535Z,996.34
2022-09-27T02:08:36.065Z,996.34
2022-09-27T02:10:35.448Z,996.49
2022-09-27T02:12:35.040Z,996.49
2022-09-27T02:14:35.583Z,996.43
2022-09-27T02:16:35.557Z,996.43
2022-09-27T02:18:35.712Z,996.39
2022-09-27T02:20:36.046Z,996.39
2022-09-27T02:22:35.868Z,996.28
2022-09-27T02:24:35.183Z,996.28
2022-09-27T02:26:35.748Z,996.17
2022-09-27T02:28:35.649Z,996.17
2022-09-27T02:30:35.923Z,996.1
2022-09-27T02:32:35.820Z,996.1
2022-09-27T02:34:35.468Z,996.09
2022-09-27T02:36:35.598Z,996.09
2022-09-27T02:38:35.239Z,996.03
2022-09-27T02:40:35.603Z,996.03
2022-09-27T02:42:35.323Z,996.05
2022-09-27T02:44:35.476Z,996.05
2022-09-27T02:46:36.278Z,996.08
2022-09-27T02:48:35.122Z,996.08
2022-09-27T02:50:35.315Z,995.99
2022-09-27T02:52:35.695Z,995.99
2022-09-27T02:54:35.351Z,996.02
2022-09-27T02:56:35.632Z,996.02
2022-09-27T02:58:35.435Z,996
2022-09-27T03:00:38.513Z,996
2022-09-27T03:02:36.892Z,995.98
2022-09-27T03:04:35.216Z,995.98
2022-09-27T03:06:35.491Z,996.07
2022-09-27T03:08:35.181Z,996.07
2022-09-27T03:10:35.056Z,996.02
2022-09-27T03:12:35.681Z,996.02
2022-09-27T03:14:42.921Z,996
2022-09-27T03:16:35.971Z,996
2022-09-27T03:18:35.150Z,995.96
2022-09-27T03:20:35.971Z,995.96
2022-09-27T03:22:35.912Z,995.9
2022-09-27T03:24:35.242Z,995.9
2022-09-27T03:26:35.922Z,996.02
2022-09-27T03:28:35.824Z,996.02
2022-09-27T03:30:35.617Z,995.88
2022-09-27T03:32:35.712Z,995.88
2022-09-27T03:34:35.338Z,996.02
2022-09-27T03:36:35.725Z,996.02
2022-09-27T03:38:35.888Z,996
2022-09-27T03:40:36.333Z,996
2022-09-27T03:42:35.732Z,996.02
2022-09-27T03:44:35.823Z,996.02
2022-09-27T03:46:35.915Z,995.99
2022-09-27T03:48:39.554Z,995.99
2022-09-27T03:50:35.224Z,996.07
2022-09-27T03:52:35.902Z,996.07
2022-09-27T03:54:35.154Z,996.17
2022-09-27T03:56:35.811Z,996.17
2022-09-27T03:58:35.580Z,996.12
2022-09-27T04:00:39.327Z,996.12
2022-09-27T04:02:35.651Z,996.06
2022-09-27T04:04:35.547Z,996.06
2022-09-27T04:06:35.281Z,996.06
2022-09-27T04:08:35.330Z,996.06
2022-09-27T04:10:35.525Z,996.09
2022-09-27T04:12:35.140Z,996.09
2022-09-27T04:14:35.373Z,996.11
2022-09-27T04:16:35.971Z,996.11
2022-09-27T04:18:35.310Z,996.02
2022-09-27T04:20:35.665Z,996.02
2022-09-27T04:22:35.634Z,995.98
2022-09-27T04:24:35.886Z,995.98
2022-09-27T04:26:35.580Z,996.08
2022-09-27T04:28:35.903Z,995.95
2022-09-27T04:30:35.202Z,995.95
2022-09-27T04:32:35.975Z,995.89
2022-09-27T04:34:35.117Z,995.89
2022-09-27T04:36:35.748Z,995.96
2022-09-27T04:38:35.820Z,995.96
2022-09-27T04:40:35.491Z,996.08
2022-09-27T04:42:35.738Z,996.08
2022-09-27T04:44:35.030Z,996.15
2022-09-27T04:46:35.713Z,996.15
2022-09-27T04:48:35.321Z,996.23
2022-09-27T04:50:36.667Z,996.23
2022-09-27T04:52:35.320Z,996.07
2022-09-27T04:54:35.649Z,996.07
2022-09-27T04:56:35.706Z,996.07
2022-09-27T04:58:36.000Z,996.07
2022-09-27T05:00:39.687Z,996.04
2022-09-27T05:02:36.080Z,996.04
2022-09-27T05:04:35.576Z,996.27
2022-09-27T05:06:35.304Z,996.27
2022-09-27T05:08:35.686Z,996.25
2022-09-27T05:10:35.509Z,996.25
2022-09-27T05:12:35.565Z,996.42
2022-09-27T05:14:35.129Z,996.42
2022-09-27T05:16:35.162Z,996.38
2022-09-27T05:18:35.565Z,996.38
2022-09-27T05:20:35.404Z,996.15
2022-09-27T05:22:35.487Z,996.15
2022-09-27T05:24:35.977Z,996.2
2022-09-27T05:26:35.290Z,996.2
2022-09-27T05:28:35.331Z,996.26
2022-09-27T05:30:35.964Z,996.26
2022-09-27T05:32:36.000Z,996.23
2022-09-27T05:34:35.026Z,996.23
2022-09-27T05:36:35.221Z,996.24
2022-09-27T05:38:35.359Z,996.24
2022-09-27T05:41:04.814Z,996.2
2022-09-27T05:42:35.798Z,996.2
2022-09-27T05:44:35.979Z,996.19
2022-09-27T05:46:35.585Z,996.19
2022-09-27T05:48:35.475Z,996.28
2022-09-27T05:50:35.918Z,996.28
2022-09-27T05:52:40.040Z,996.23
2022-09-27T05:54:35.804Z,996.23
2022-09-27T05:56:35.363Z,996.31
2022-09-27T05:58:35.134Z,996.31
2022-09-27T06:00:37.858Z,996.11
2022-09-27T06:02:35.804Z,996.11
2022-09-27T06:04:35.378Z,996.16
2022-09-27T06:06:35.587Z,996.16
2022-09-27T06:08:35.915Z,996.23
2022-09-27T06:10:35.639Z,996.23
2022-09-27T06:12:35.595Z,996.3
2022-09-27T06:14:35.737Z,996.3
2022-09-27T06:16:36.037Z,996.29
2022-09-27T06:18:35.775Z,996.29
2022-09-27T06:20:35.632Z,996.33
2022-09-27T06:22:35.645Z,996.33
2022-09-27T06:24:35.650Z,996.32
2022-09-27T06:26:35.630Z,996.32
2022-09-27T06:28:35.271Z,996.31
2022-09-27T06:30:42.174Z,996.31
2022-09-27T06:32:35.372Z,996.31
2022-09-27T06:34:35.859Z,996.31
2022-09-27T06:36:36.203Z,996.26
2022-09-27T06:38:35.080Z,996.26
2022-09-27T06:40:35.910Z,996.35
2022-09-27T06:42:35.188Z,996.35
2022-09-27T06:44:35.092Z,996.47
2022-09-27T06:46:36.120Z,996.47
2022-09-27T06:48:35.173Z,996.43
2022-09-27T06:50:35.294Z,996.43
2022-09-27T06:52:35.930Z,996.3
2022-09-27T06:54:35.844Z,996.3
2022-09-27T06:56:35.108Z,996.53
2022-09-27T06:58:35.418Z,996.53
2022-09-27T07:00:37.882Z,996.7
2022-09-27T07:02:36.236Z,996.7
2022-09-27T07:04:35.102Z,996.81
2022-09-27T07:06:35.157Z,996.81
2022-09-27T07:08:35.313Z,996.88
2022-09-27T07:10:40.077Z,996.88
2022-09-27T07:12:35.558Z,996.93
2022-09-27T07:14:35.686Z,996.93
2022-09-27T07:16:35.490Z,996.94
2022-09-27T07:18:35.669Z,996.94
2022-09-27T07:20:36.107Z,996.97
2022-09-27T07:22:35.849Z,996.97
2022-09-27T07:24:35.449Z,996.93
2022-09-27T07:26:35.047Z,996.93
2022-09-27T07:28:42.163Z,996.87
2022-09-27T07:30:35.491Z,996.87
2022-09-27T07:32:35.152Z,996.8
2022-09-27T07:34:35.586Z,996.8
2022-09-27T07:36:35.695Z,996.8
2022-09-27T07:38:35.913Z,996.8
2022-09-27T07:40:36.258Z,996.85
2022-09-27T07:42:35.226Z,996.85
2022-09-27T07:44:35.528Z,996.87
2022-09-27T07:46:35.727Z,996.87
2022-09-27T07:48:35.756Z,996.91
2022-09-27T07:50:35.460Z,996.91
2022-09-27T07:52:35.650Z,996.85
2022-09-27T07:54:41.682Z,997.01
2022-09-27T07:56:35.301Z,997.01
2022-09-27T07:58:35.676Z,997.04
2022-09-27T08:00:38.171Z,997.04
2022-09-27T08:02:35.618Z,997.01
2022-09-27T08:04:35.312Z,997.01
2022-09-27T08:06:35.683Z,997.04
2022-09-27T08:08:35.799Z,997.04
2022-09-27T08:10:35.963Z,997.1
2022-09-27T08:12:35.017Z,997.1
2022-09-27T08:14:40.970Z,997.01
2022-09-27T08:16:35.502Z,997.01
2022-09-27T08:18:35.490Z,997.17
2022-09-27T08:20:35.296Z,997.17
2022-09-27T08:22:35.407Z,997.15
2022-09-27T08:24:35.720Z,997.15
2022-09-27T08:26:35.782Z,997.01
2022-09-27T08:28:35.365Z,997.01
2022-09-27T08:30:35.922Z,997.05
2022-09-27T08:32:35.355Z,997.05
2022-09-27T08:34:35.536Z,997.18
2022-09-27T08:36:35.064Z,997.18
2022-09-27T08:38:35.846Z,997.13
2022-09-27T08:40:36.166Z,997.13
2022-09-27T08:42:35.529Z,997.16
2022-09-27T08:44:34.994Z,997.16
2022-09-27T08:46:35.911Z,997.15
2022-09-27T08:48:35.436Z,997.15
2022-09-27T08:50:39.048Z,997.14
2022-09-27T08:52:35.023Z,997.14
2022-09-27T08:54:35.146Z,997.17
2022-09-27T08:56:35.437Z,997.17
2022-09-27T08:58:35.203Z,997.22
2022-09-27T09:00:39.319Z,997.22
2022-09-27T09:02:36.334Z,997.19
2022-09-27T09:04:35.391Z,997.19
2022-09-27T09:06:35.894Z,997.15
2022-09-27T09:08:39.902Z,997.15
2022-09-27T09:10:35.926Z,997.26
2022-09-27T09:12:35.778Z,997.26
2022-09-27T09:14:36.354Z,997.34
2022-09-27T09:16:36.089Z,997.34
2022-09-27T09:18:35.526Z,997.31
2022-09-27T09:20:39.916Z,997.31
2022-09-27T09:22:35.066Z,997.39
2022-09-27T09:24:35.662Z,997.39
2022-09-27T09:26:35.896Z,997.36
2022-09-27T09:28:36.598Z,997.36
2022-09-27T09:30:35.078Z,997.37
2022-09-27T09:32:35.296Z,997.37
2022-09-27T09:34:35.662Z,997.32
2022-09-27T09:36:35.301Z,997.32
2022-09-27T09:38:35.663Z,997.25
2022-09-27T09:40:42.673Z,997.25
2022-09-27T09:42:35.787Z,997.23
2022-09-27T09:44:35.280Z,997.23
2022-09-27T09:46:35.619Z,997.17
2022-09-27T09:48:35.887Z,997.17
2022-09-27T09:50:35.643Z,997.23
2022-09-27T09:52:41.800Z,997.23
2022-09-27T09:54:35.700Z,997.09
2022-09-27T09:56:35.421Z,997.09
2022-09-27T09:58:41.650Z,997.29
2022-09-27T10:00:38.359Z,997.29
2022-09-27T10:02:35.402Z,997.36
2022-09-27T10:04:35.278Z,997.36
2022-09-27T10:06:35.782Z,997.36
2022-09-27T10:08:35.911Z,997.36
2022-09-27T10:10:35.931Z,997.35
2022-09-27T10:12:35.665Z,997.35
2022-09-27T10:14:35.899Z,997.45
2022-09-27T10:16:36.262Z,997.45
2022-09-27T10:18:35.455Z,997.46
2022-09-27T10:20:35.254Z,997.46
2022-09-27T10:22:35.056Z,997.26
2022-09-27T10:24:41.086Z,997.26
2022-09-27T10:26:35.498Z,997.09
2022-09-27T10:28:35.627Z,997.09
2022-09-27T10:30:35.106Z,997.15
2022-09-27T10:32:35.541Z,997.15
2022-09-27T10:34:35.772Z,997.15
2022-09-27T10:36:35.010Z,997.15
2022-09-27T10:38:35.844Z,996.98
2022-09-27T10:40:35.228Z,996.98
2022-09-27T10:42:35.251Z,996.93
2022-09-27T10:44:35.000Z,996.93
2022-09-27T10:46:35.549Z,996.84
2022-09-27T10:48:35.056Z,996.84
2022-09-27T10:51:03.439Z,996.83
2022-09-27T10:52:35.697Z,996.83
2022-09-27T10:54:35.235Z,996.85
2022-09-27T10:56:35.498Z,996.85
2022-09-27T10:58:35.232Z,997.09
2022-09-27T11:00:38.643Z,997.09
2022-09-27T11:02:35.754Z,997.1
2022-09-27T11:04:35.651Z,997.1
2022-09-27T11:06:35.685Z,996.94
2022-09-27T11:08:35.596Z,996.94
2022-09-27T11:10:37.701Z,997.11
2022-09-27T11:12:35.607Z,997.11
2022-09-27T11:14:35.727Z,997.08
2022-09-27T11:16:36.335Z,997.02
2022-09-27T11:18:35.091Z,997.02
2022-09-27T11:20:35.169Z,997.06
2022-09-27T11:22:35.727Z,997.06
2022-09-27T11:24:35.836Z,997
2022-09-27T11:26:35.678Z,997
2022-09-27T11:28:35.186Z,997.03
2022-09-27T11:30:35.869Z,997.03
2022-09-27T11:32:35.731Z,996.99
2022-09-27T11:34:35.288Z,996.99
2022-09-27T11:36:35.560Z,996.95
2022-09-27T11:39:04.625Z,996.95
2022-09-27T11:40:35.372Z,997.07
2022-09-27T11:42:35.860Z,997.07
2022-09-27T11:44:35.471Z,997.03
2022-09-27T11:47:04.390Z,997.03
2022-09-27T11:50:35.713Z,996.96
2022-09-27T11:52:35.568Z,997
2022-09-27T11:54:35.369Z,997
2022-09-27T11:56:35.574Z,996.98
2022-09-27T11:58:35.869Z,996.98
2022-09-27T12:00:38.451Z,996.96
2022-09-27T12:02:36.062Z,996.96
2022-09-27T12:04:35.693Z,996.97
2022-09-27T12:06:41.109Z,996.97
2022-09-27T12:08:35.816Z,997
2022-09-27T12:10:35.357Z,997
2022-09-27T12:12:35.258Z,996.94
2022-09-27T12:14:38.434Z,996.94
2022-09-27T12:16:35.214Z,997.03
2022-09-27T12:18:35.347Z,997.03
2022-09-27T12:20:36.183Z,996.95
2022-09-27T12:23:05.590Z,996.95
2022-09-27T12:24:35.497Z,996.93
2022-09-27T12:26:35.293Z,996.93
2022-09-27T12:28:39.735Z,996.95
2022-09-27T12:30:35.073Z,996.95
2022-09-27T12:32:35.157Z,996.9
2022-09-27T12:34:41.974Z,996.9
2022-09-27T12:36:38.299Z,996.81
2022-09-27T12:38:35.083Z,996.81
2022-09-27T12:40:35.726Z,996.72
2022-09-27T12:42:35.313Z,996.72
2022-09-27T12:44:35.674Z,996.75
2022-09-27T12:46:35.601Z,996.75
2022-09-27T12:48:35.259Z,996.8
2022-09-27T12:50:36.024Z,996.8
2022-09-27T12:52:34.992Z,996.78
2022-09-27T12:54:35.574Z,996.78
2022-09-27T12:56:34.988Z,996.9
2022-09-27T12:58:35.257Z,996.9
2022-09-27T13:00:38.492Z,996.67
2022-09-27T13:02:36.193Z,996.67
2022-09-27T13:04:35.882Z,996.76
2022-09-27T13:06:35.437Z,996.76
2022-09-27T13:08:35.900Z,996.7
2022-09-27T13:10:35.901Z,996.7
2022-09-27T13:12:35.458Z,996.65
2022-09-27T13:14:35.353Z,996.65
2022-09-27T13:16:36.243Z,996.56
2022-09-27T13:18:35.167Z,996.56
2022-09-27T13:20:35.431Z,996.55
2022-09-27T13:22:35.707Z,996.55
2022-09-27T13:24:35.291Z,996.53
2022-09-27T13:26:35.313Z,996.53
2022-09-27T13:28:35.761Z,996.48
2022-09-27T13:30:35.599Z,996.48
2022-09-27T13:32:35.081Z,996.48
2022-09-27T13:34:35.388Z,996.48
2022-09-27T13:36:35.274Z,996.51
2022-09-27T13:38:35.694Z,996.51
2022-09-27T13:40:35.392Z,996.52
2022-09-27T13:42:35.212Z,996.52
2022-09-27T13:44:35.556Z,996.52
2022-09-27T13:46:35.466Z,996.52
2022-09-27T13:48:35.465Z,996.49
2022-09-27T13:50:35.275Z,996.49
2022-09-27T13:52:35.803Z,996.45
2022-09-27T13:54:38.263Z,996.45
2022-09-27T13:56:35.534Z,996.43
2022-09-27T13:58:35.233Z,996.43
2022-09-27T14:00:38.280Z,996.37
2022-09-27T14:02:36.066Z,996.37
2022-09-27T14:04:35.064Z,996.26
2022-09-27T14:06:41.668Z,996.26
2022-09-27T14:08:35.160Z,996.29
2022-09-27T14:10:35.068Z,996.29
2022-09-27T14:12:35.176Z,996.17
2022-09-27T14:14:35.563Z,996.17
2022-09-27T14:16:35.866Z,996.2
2022-09-27T14:18:35.065Z,996.2
2022-09-27T14:20:35.419Z,996.09
2022-09-27T14:22:34.946Z,996.09
2022-09-27T14:24:35.867Z,996.07
2022-09-27T14:26:35.773Z,996.07
2022-09-27T14:28:35.407Z,996.11
2022-09-27T14:30:35.768Z,996.11
2022-09-27T14:32:35.283Z,996.07
2022-09-27T14:34:35.317Z,996.07
2022-09-27T14:36:35.856Z,995.93
2022-09-27T14:39:00.394Z,995.92
2022-09-27T14:40:35.293Z,995.92
2022-09-27T14:42:35.664Z,995.92
2022-09-27T14:44:39.585Z,995.91
2022-09-27T14:46:36.159Z,995.92
2022-09-27T14:48:35.484Z,995.92
2022-09-27T14:50:35.486Z,995.96
2022-09-27T14:52:35.557Z,995.96
2022-09-27T14:54:35.601Z,995.87
2022-09-27T14:56:35.753Z,995.87
2022-09-27T14:59:05.526Z,996.16
2022-09-27T15:00:38.563Z,996.16
2022-09-27T15:02:35.091Z,996.2
2022-09-27T15:04:36.986Z,996.2
2022-09-27T15:06:35.984Z,996.15
2022-09-27T15:08:35.535Z,996.15
2022-09-27T15:10:35.054Z,996.14
2022-09-27T15:12:35.512Z,996.14
2022-09-27T15:14:35.575Z,996
2022-09-27T15:16:36.137Z,996
2022-09-27T15:18:35.700Z,996.12
2022-09-27T15:20:35.869Z,996.12
2022-09-27T15:22:35.353Z,996
2022-09-27T15:24:35.140Z,996
2022-09-27T15:26:35.552Z,995.96
2022-09-27T15:28:35.846Z,995.96
2022-09-27T15:30:41.062Z,995.84
2022-09-27T15:32:35.932Z,995.84
2022-09-27T15:34:35.310Z,995.95
2022-09-27T15:36:35.389Z,995.95
2022-09-27T15:38:35.825Z,995.88
2022-09-27T15:40:35.601Z,995.88
2022-09-27T15:42:35.900Z,995.75
2022-09-27T15:44:36.096Z,995.75
2022-09-27T15:46:35.431Z,995.69
2022-09-27T15:48:35.251Z,995.69
2022-09-27T15:50:35.409Z,995.89
2022-09-27T15:52:35.609Z,995.89
2022-09-27T15:54:35.937Z,995.79
2022-09-27T15:56:35.345Z,995.79
2022-09-27T15:58:35.721Z,995.83
2022-09-27T16:00:40.826Z,995.83
2022-09-27T16:02:41.962Z,995.75
2022-09-27T16:04:35.737Z,995.75
2022-09-27T16:06:35.123Z,995.67
2022-09-27T16:08:35.461Z,995.67
2022-09-27T16:10:35.571Z,995.71
2022-09-27T16:12:35.429Z,995.71
2022-09-27T16:14:35.526Z,995.78
2022-09-27T16:16:35.920Z,995.78
2022-09-27T16:18:41.481Z,995.66
2022-09-27T16:20:35.450Z,995.66
2022-09-27T16:22:35.558Z,995.66
2022-09-27T16:24:40.170Z,995.66
2022-09-27T16:26:35.823Z,995.73
2022-09-27T16:28:35.169Z,995.73
2022-09-27T16:30:35.743Z,995.81
2022-09-27T16:32:35.822Z,995.81
2022-09-27T16:34:35.872Z,995.65
2022-09-27T16:36:35.840Z,995.65
2022-09-27T16:38:35.401Z,995.59
2022-09-27T16:40:35.494Z,995.59
2022-09-27T16:42:35.374Z,995.53
2022-09-27T16:44:35.259Z,995.53
2022-09-27T16:46:36.008Z,995.48
2022-09-27T16:48:35.985Z,995.48
2022-09-27T16:50:36.007Z,995.52
2022-09-27T16:52:35.281Z,995.52
2022-09-27T16:54:35.703Z,995.6
2022-09-27T16:56:35.866Z,995.6
2022-09-27T16:58:35.196Z,995.53
2022-09-27T17:00:37.740Z,995.53
2022-09-27T17:02:36.260Z,995.54
2022-09-27T17:04:35.637Z,995.54
2022-09-27T17:06:35.448Z,995.58
2022-09-27T17:08:35.602Z,995.58
2022-09-27T17:10:35.262Z,995.56
2022-09-27T17:12:35.162Z,995.56
2022-09-27T17:14:35.419Z,995.5
2022-09-27T17:16:36.188Z,995.5
2022-09-27T17:18:35.921Z,995.56
2022-09-27T17:20:35.403Z,995.56
2022-09-27T17:22:35.616Z,995.31
2022-09-27T17:24:35.135Z,995.31
2022-09-27T17:26:35.485Z,995.34
2022-09-27T17:28:35.823Z,995.34
2022-09-27T17:30:35.675Z,995.25
2022-09-27T17:32:35.079Z,995.25
2022-09-27T17:34:35.674Z,995.2
2022-09-27T17:36:35.735Z,995.2
2022-09-27T17:38:35.228Z,995.17
2022-09-27T17:40:35.389Z,995.17
2022-09-27T17:42:35.347Z,995.1
2022-09-27T17:44:35.379Z,995.1
2022-09-27T17:46:36.304Z,995.12
2022-09-27T17:48:36.394Z,995.12
2022-09-27T17:50:35.432Z,995.15
2022-09-27T17:52:35.750Z,995.15
2022-09-27T17:54:35.427Z,995.21
2022-09-27T17:56:35.701Z,995.21
2022-09-27T17:58:35.328Z,995.16
2022-09-27T18:00:38.358Z,995.35
2022-09-27T18:02:36.265Z,995.35
2022-09-27T18:04:35.827Z,995.21
2022-09-27T18:06:35.092Z,995.21
2022-09-27T18:08:35.306Z,995.21
2022-09-27T18:10:35.577Z,995.21
2022-09-27T18:12:35.240Z,995.21
2022-09-27T18:14:36.118Z,995.21
2022-09-27T18:16:35.380Z,995.18
2022-09-27T18:18:35.117Z,995.18
2022-09-27T18:20:35.422Z,995.26
2022-09-27T18:22:35.212Z,995.26
2022-09-27T18:24:35.666Z,995.28
2022-09-27T18:26:35.395Z,995.28
2022-09-27T18:28:35.155Z,995.34
2022-09-27T18:30:35.609Z,995.34
2022-09-27T18:32:35.837Z,995.34
2022-09-27T18:34:35.640Z,995.34
2022-09-27T18:36:35.843Z,995.25
2022-09-27T18:38:35.441Z,995.25
2022-09-27T18:40:57.009Z,995.33
2022-09-27T18:42:35.460Z,995.33
2022-09-27T18:44:35.266Z,995.25
2022-09-27T18:47:07.734Z,995.25
2022-09-27T18:48:35.759Z,995.26
2022-09-27T18:50:35.187Z,995.26
2022-09-27T18:52:35.518Z,995.26
2022-09-27T18:54:35.198Z,995.26
2022-09-27T18:56:35.050Z,995.29
2022-09-27T18:58:35.592Z,995.29
2022-09-27T19:00:36.807Z,995.27
2022-09-27T19:02:35.340Z,995.27
2022-09-27T19:04:35.599Z,995.22
2022-09-27T19:06:35.857Z,995.22
2022-09-27T19:08:35.137Z,995.23
2022-09-27T19:10:35.644Z,995.23
2022-09-27T19:12:35.191Z,995.26
2022-09-27T19:14:35.286Z,995.26
2022-09-27T19:16:35.500Z,995.26
2022-09-27T19:18:35.978Z,995.26
2022-09-27T19:20:35.840Z,995.34
2022-09-27T19:22:35.812Z,995.34
2022-09-27T19:24:35.499Z,995.31
2022-09-27T19:26:35.383Z,995.31
2022-09-27T19:28:35.495Z,995.31
2022-09-27T19:30:35.959Z,995.31
2022-09-27T19:32:35.640Z,995.32
2022-09-27T19:34:34.969Z,995.32
2022-09-27T19:36:35.361Z,995.38
2022-09-27T19:38:35.619Z,995.38
2022-09-27T19:40:35.921Z,995.46
2022-09-27T19:42:35.870Z,995.46
2022-09-27T19:44:35.231Z,995.35
2022-09-27T19:46:35.933Z,995.35
2022-09-27T19:48:35.080Z,995.44
2022-09-27T19:50:35.374Z,995.44
2022-09-27T19:52:35.730Z,995.46
2022-09-27T19:54:35.195Z,995.46
2022-09-27T19:56:35.531Z,995.47
2022-09-27T19:58:36.094Z,995.47
2022-09-27T20:00:37.968Z,995.5
2022-09-27T20:02:36.381Z,995.5
2022-09-27T20:04:39.604Z,995.43
2022-09-27T20:06:35.050Z,995.43
2022-09-27T20:08:35.702Z,995.49
2022-09-27T20:10:35.477Z,995.49
2022-09-27T20:12:35.026Z,995.44
2022-09-27T20:14:35.705Z,995.44
2022-09-27T20:16:40.467Z,995.4
2022-09-27T20:18:40.862Z,995.4
2022-09-27T20:20:35.734Z,995.36
2022-09-27T20:22:35.747Z,995.36
2022-09-27T20:24:35.595Z,995.39
2022-09-27T20:26:35.053Z,995.39
2022-09-27T20:28:35.895Z,995.35
2022-09-27T20:30:35.627Z,995.35
2022-09-27T20:33:00.475Z,995.38
2022-09-27T20:34:35.289Z,995.38
2022-09-27T20:36:35.724Z,995.39
2022-09-27T20:38:36.004Z,995.39
2022-09-27T20:40:35.621Z,995.17
2022-09-27T20:42:36.031Z,995.17
2022-09-27T20:44:35.615Z,995.25
2022-09-27T20:46:35.929Z,995.25
2022-09-27T20:48:35.700Z,995.35
2022-09-27T20:50:35.945Z,995.35
2022-09-27T20:52:35.888Z,995.35
2022-09-27T20:54:35.254Z,995.35
2022-09-27T20:56:35.376Z,995.24
2022-09-27T20:58:35.393Z,995.24
2022-09-27T21:00:37.888Z,995.25
2022-09-27T21:02:35.958Z,995.25
2022-09-27T21:04:35.097Z,995.33
2022-09-27T21:06:35.481Z,995.33
2022-09-27T21:08:35.579Z,995.18
2022-09-27T21:10:35.456Z,995.18
2022-09-27T21:12:35.833Z,995.2
2022-09-27T21:14:35.699Z,995.2
2022-09-27T21:16:37.335Z,995.3
2022-09-27T21:18:35.404Z,995.3
2022-09-27T21:20:35.757Z,995.14
2022-09-27T21:22:35.768Z,995.27
2022-09-27T21:24:35.701Z,995.27
2022-09-27T21:26:35.856Z,995.33
2022-09-27T21:28:35.818Z,995.33
2022-09-27T21:30:35.363Z,995.23
2022-09-27T21:32:35.959Z,995.23
2022-09-27T21:34:34.996Z,995.2
2022-09-27T21:36:35.365Z,995.2
2022-09-27T21:38:35.855Z,995.2
2022-09-27T21:40:35.271Z,995.2
2022-09-27T21:42:35.033Z,995.32
2022-09-27T21:44:35.617Z,995.32
2022-09-27T21:46:35.646Z,995.38
2022-09-27T21:48:35.337Z,995.38
2022-09-27T21:50:35.488Z,995.42
2022-09-27T21:52:35.523Z,995.42
2022-09-27T21:54:36.042Z,995.4
2022-09-27T21:56:35.445Z,995.4
2022-09-27T21:58:35.701Z,995.35
2022-09-27T22:00:35.566Z,995.35
2022-09-27T22:02:36.155Z,995.22
2022-09-27T22:04:35.860Z,995.22
2022-09-27T22:06:35.353Z,995.26
2022-09-27T22:08:35.968Z,995.26
2022-09-27T22:10:35.669Z,995.21
2022-09-27T22:12:35.354Z,995.21
2022-09-27T22:14:35.731Z,995.13
2022-09-27T22:16:35.536Z,995.13
2022-09-27T22:18:35.473Z,995.11
2022-09-27T22:20:35.393Z,995.11
2022-09-27T22:22:35.815Z,995.18
2022-09-27T22:24:41.408Z,995.18
2022-09-27T22:26:35.384Z,995.22
2022-09-27T22:28:35.070Z,995.22
2022-09-27T22:30:35.714Z,995.25
2022-09-27T22:32:35.333Z,995.25
2022-09-27T22:34:35.282Z,995.17
2022-09-27T22:36:35.417Z,995.17
2022-09-27T22:38:35.636Z,995.11
2022-09-27T22:40:35.257Z,995.11
2022-09-27T22:42:35.242Z,995.14
2022-09-27T22:44:35.314Z,995.14
2022-09-27T22:46:35.360Z,995.2
2022-09-27T22:48:35.230Z,995.2
2022-09-27T22:50:35.552Z,995.18
2022-09-27T22:52:35.809Z,995.18
2022-09-27T22:54:36.089Z,994.99
2022-09-27T22:56:38.744Z,994.99
2022-09-27T22:58:36.020Z,995.06
2022-09-27T23:00:40.631Z,995.06
2022-09-27T23:02:35.155Z,994.9
2022-09-27T23:04:35.845Z,994.9
2022-09-27T23:06:35.166Z,994.92
2022-09-27T23:08:35.143Z,994.92
2022-09-27T23:10:35.399Z,994.92
2022-09-27T23:12:35.432Z,994.92
2022-09-27T23:14:38.178Z,994.84
2022-09-27T23:16:35.809Z,994.84
2022-09-27T23:18:35.517Z,994.82
2022-09-27T23:20:35.845Z,994.82
2022-09-27T23:22:35.599Z,994.89
2022-09-27T23:24:35.209Z,994.89
2022-09-27T23:26:35.486Z,994.65
2022-09-27T23:28:35.641Z,994.65
2022-09-27T23:30:35.165Z,994.74
2022-09-27T23:32:40.929Z,994.74
2022-09-27T23:34:35.552Z,994.6
2022-09-27T23:36:35.119Z,994.6
2022-09-27T23:38:35.732Z,994.6
2022-09-27T23:40:35.440Z,994.6
2022-09-27T23:42:35.644Z,994.6
2022-09-27T23:44:35.208Z,994.6
2022-09-27T23:46:35.715Z,994.62
2022-09-27T23:48:35.639Z,994.62
2022-09-27T23:50:35.989Z,994.53
2022-09-27T23:52:35.300Z,994.53
2022-09-27T23:54:35.643Z,994.6
2022-09-27T23:56:35.157Z,994.6
2022-09-27T23:58:35.145Z,994.52
